sensor_id;sensor_type;location;lat;lon;timestamp;P1;durP1;ratioP1;P2;durP2;ratioP2
70205;SDS011;57593;55.896;37.396;2022-12-18T00:00:01;16.33;;;10.10;;
70205;SDS011;57593;55.896;37.396;2022-12-18T00:00:32;15.84;;;10.16;;
70205;SDS011;57593;55.896;37.396;2022-12-18T00:01:47;17.14;;;10.36;;
70205;SDS011;57593;55.896;37.396;2022-12-18T00:02:18;17.06;;;10.20;;
70205;SDS011;57593;55.896;37.396;2022-12-18T00:02:49;17.95;;;10.63;;
70205;SDS011;57593;55.896;37.396;2022-12-18T00:03:19;18.33;;;10.40;;
70205;SDS011;57593;55.896;37.396;2022-12-18T00:03:51;18.85;;;10.70;;
70205;SDS011;57593;55.896;37.396;2022-12-18T00:04:23;15.94;;;10.00;;
70205;SDS011;57593;55.896;37.396;2022-12-18T00:04:54;17.22;;;10.12;;
70205;SDS011;57593;55.896;37.396;2022-12-18T00:05:25;18.23;;;10.63;;
70205;SDS011;57593;55.896;37.396;2022-12-18T00:05:56;18.15;;;10.93;;
70205;SDS011;57593;55.896;37.396;2022-12-18T00:06:27;15.65;;;10.48;;
70205;SDS011;57593;55.896;37.396;2022-12-18T00:06:59;17.76;;;10.10;;
70205;SDS011;57593;55.896;37.396;2022-12-18T00:07:30;17.00;;;10.35;;
70205;SDS011;57593;55.896;37.396;2022-12-18T00:08:00;17.33;;;9.93;;
70205;SDS011;57593;55.896;37.396;2022-12-18T00:08:31;18.15;;;10.88;;
70205;SDS011;57593;55.896;37.396;2022-12-18T00:09:03;17.00;;;9.86;;
70205;SDS011;57593;55.896;37.396;2022-12-18T00:09:34;17.30;;;10.34;;
70205;SDS011;57593;55.896;37.396;2022-12-18T00:10:05;18.65;;;10.73;;
70205;SDS011;57593;55.896;37.396;2022-12-18T00:10:36;17.22;;;10.28;;
70205;SDS011;57593;55.896;37.396;2022-12-18T00:11:07;15.82;;;9.63;;
70205;SDS011;57593;55.896;37.396;2022-12-18T00:11:40;15.42;;;9.56;;
70205;SDS011;57593;55.896;37.396;2022-12-18T00:12:11;17.10;;;10.27;;
70205;SDS011;57593;55.896;37.396;2022-12-18T00:12:42;16.63;;;10.00;;
70205;SDS011;57593;55.896;37.396;2022-12-18T00:13:12;19.05;;;10.68;;
70205;SDS011;57593;55.896;37.396;2022-12-18T00:13:43;14.25;;;9.40;;
70205;SDS011;57593;55.896;37.396;2022-12-18T00:14:14;19.56;;;11.28;;
70205;SDS011;57593;55.896;37.396;2022-12-18T00:14:45;18.30;;;9.85;;
70205;SDS011;57593;55.896;37.396;2022-12-18T00:15:16;17.77;;;10.65;;
70205;SDS011;57593;55.896;37.396;2022-12-18T00:15:46;16.02;;;9.45;;
70205;SDS011;57593;55.896;37.396;2022-12-18T00:16:18;17.58;;;10.15;;
70205;SDS011;57593;55.896;37.396;2022-12-18T00:16:50;18.22;;;11.04;;
70205;SDS011;57593;55.896;37.396;2022-12-18T00:17:21;18.23;;;10.30;;
70205;SDS011;57593;55.896;37.396;2022-12-18T00:17:52;17.10;;;9.43;;
70205;SDS011;57593;55.896;37.396;2022-12-18T00:18:22;14.77;;;8.75;;
70205;SDS011;57593;55.896;37.396;2022-12-18T00:18:54;17.40;;;10.45;;
70205;SDS011;57593;55.896;37.396;2022-12-18T00:19:28;16.74;;;9.52;;
70205;SDS011;57593;55.896;37.396;2022-12-18T00:19:59;16.85;;;9.73;;
70205;SDS011;57593;55.896;37.396;2022-12-18T00:20:29;16.65;;;9.88;;
70205;SDS011;57593;55.896;37.396;2022-12-18T00:21:01;16.32;;;9.78;;
70205;SDS011;57593;55.896;37.396;2022-12-18T00:21:33;16.64;;;9.92;;
70205;SDS011;57593;55.896;37.396;2022-12-18T00:22:04;14.62;;;9.10;;
70205;SDS011;57593;55.896;37.396;2022-12-18T00:22:36;15.72;;;9.64;;
70205;SDS011;57593;55.896;37.396;2022-12-18T00:23:07;16.70;;;10.77;;
70205;SDS011;57593;55.896;37.396;2022-12-18T00:23:38;17.60;;;9.93;;
70205;SDS011;57593;55.896;37.396;2022-12-18T00:24:10;17.06;;;9.56;;
70205;SDS011;57593;55.896;37.396;2022-12-18T00:24:41;14.56;;;9.40;;
70205;SDS011;57593;55.896;37.396;2022-12-18T00:25:12;16.65;;;9.85;;
70205;SDS011;57593;55.896;37.396;2022-12-18T00:25:42;16.48;;;9.65;;
70205;SDS011;57593;55.896;37.396;2022-12-18T00:26:20;17.80;;;11.40;;
70205;SDS011;57593;55.896;37.396;2022-12-18T00:26:55;18.92;;;10.00;;
70205;SDS011;57593;55.896;37.396;2022-12-18T00:27:26;16.08;;;9.77;;
70205;SDS011;57593;55.896;37.396;2022-12-18T00:27:57;15.38;;;9.85;;
70205;SDS011;57593;55.896;37.396;2022-12-18T00:28:27;16.33;;;9.98;;
70205;SDS011;57593;55.896;37.396;2022-12-18T00:28:58;15.48;;;8.98;;
70205;SDS011;57593;55.896;37.396;2022-12-18T00:29:34;18.26;;;9.86;;
70205;SDS011;57593;55.896;37.396;2022-12-18T00:30:05;19.30;;;10.00;;
70205;SDS011;57593;55.896;37.396;2022-12-18T00:30:36;16.72;;;9.82;;
70205;SDS011;57593;55.896;37.396;2022-12-18T00:31:07;16.48;;;9.95;;
70205;SDS011;57593;55.896;37.396;2022-12-18T00:31:43;16.02;;;9.90;;
70205;SDS011;57593;55.896;37.396;2022-12-18T00:32:13;16.80;;;9.77;;
70205;SDS011;57593;55.896;37.396;2022-12-18T00:32:44;14.98;;;9.75;;
70205;SDS011;57593;55.896;37.396;2022-12-18T00:33:15;16.80;;;9.75;;
70205;SDS011;57593;55.896;37.396;2022-12-18T00:33:45;18.20;;;10.30;;
70205;SDS011;57593;55.896;37.396;2022-12-18T00:34:16;16.16;;;9.88;;
70205;SDS011;57593;55.896;37.396;2022-12-18T00:34:47;16.88;;;10.23;;
70205;SDS011;57593;55.896;37.396;2022-12-18T00:35:19;15.96;;;10.46;;
70205;SDS011;57593;55.896;37.396;2022-12-18T00:35:50;14.88;;;9.44;;
70205;SDS011;57593;55.896;37.396;2022-12-18T00:36:22;16.02;;;9.80;;
70205;SDS011;57593;55.896;37.396;2022-12-18T00:36:55;17.60;;;9.96;;
70205;SDS011;57593;55.896;37.396;2022-12-18T00:37:26;18.45;;;8.93;;
70205;SDS011;57593;55.896;37.396;2022-12-18T00:37:57;19.70;;;10.38;;
70205;SDS011;57593;55.896;37.396;2022-12-18T00:38:27;16.77;;;9.43;;
70205;SDS011;57593;55.896;37.396;2022-12-18T00:38:59;16.08;;;9.32;;
70205;SDS011;57593;55.896;37.396;2022-12-18T00:39:33;14.80;;;9.50;;
70205;SDS011;57593;55.896;37.396;2022-12-18T00:40:04;17.42;;;10.38;;
70205;SDS011;57593;55.896;37.396;2022-12-18T00:40:35;16.40;;;9.32;;
70205;SDS011;57593;55.896;37.396;2022-12-18T00:41:06;18.15;;;9.55;;
70205;SDS011;57593;55.896;37.396;2022-12-18T00:41:39;15.72;;;9.96;;
70205;SDS011;57593;55.896;37.396;2022-12-18T00:42:29;17.30;;;9.98;;
70205;SDS011;57593;55.896;37.396;2022-12-18T00:43:18;16.46;;;9.80;;
70205;SDS011;57593;55.896;37.396;2022-12-18T00:43:49;17.58;;;9.48;;
70205;SDS011;57593;55.896;37.396;2022-12-18T00:44:19;16.17;;;10.02;;
70205;SDS011;57593;55.896;37.396;2022-12-18T00:44:50;14.32;;;8.85;;
70205;SDS011;57593;55.896;37.396;2022-12-18T00:45:55;15.06;;;8.54;;
70205;SDS011;57593;55.896;37.396;2022-12-18T00:46:26;17.88;;;9.68;;
70205;SDS011;57593;55.896;37.396;2022-12-18T00:46:57;15.13;;;9.77;;
70205;SDS011;57593;55.896;37.396;2022-12-18T00:47:27;14.30;;;8.90;;
70205;SDS011;57593;55.896;37.396;2022-12-18T00:47:58;15.93;;;10.20;;
70205;SDS011;57593;55.896;37.396;2022-12-18T00:48:28;15.73;;;9.77;;
70205;SDS011;57593;55.896;37.396;2022-12-18T00:48:59;17.65;;;10.20;;
70205;SDS011;57593;55.896;37.396;2022-12-18T00:49:30;16.65;;;9.57;;
70205;SDS011;57593;55.896;37.396;2022-12-18T00:50:01;14.60;;;9.15;;
70205;SDS011;57593;55.896;37.396;2022-12-18T00:50:31;15.50;;;9.35;;
70205;SDS011;57593;55.896;37.396;2022-12-18T00:51:04;19.62;;;9.76;;
70205;SDS011;57593;55.896;37.396;2022-12-18T00:51:36;17.00;;;9.86;;
70205;SDS011;57593;55.896;37.396;2022-12-18T00:52:07;16.65;;;9.45;;
70205;SDS011;57593;55.896;37.396;2022-12-18T00:52:41;16.95;;;9.50;;
70205;SDS011;57593;55.896;37.396;2022-12-18T00:53:12;16.28;;;10.36;;
70205;SDS011;57593;55.896;37.396;2022-12-18T00:53:43;16.25;;;9.20;;
70205;SDS011;57593;55.896;37.396;2022-12-18T00:54:14;15.43;;;9.38;;
70205;SDS011;57593;55.896;37.396;2022-12-18T00:54:45;15.92;;;9.22;;
70205;SDS011;57593;55.896;37.396;2022-12-18T00:55:16;17.08;;;10.02;;
70205;SDS011;57593;55.896;37.396;2022-12-18T00:55:47;15.74;;;10.08;;
70205;SDS011;57593;55.896;37.396;2022-12-18T00:56:21;15.55;;;9.45;;
70205;SDS011;57593;55.896;37.396;2022-12-18T00:56:52;15.14;;;9.30;;
70205;SDS011;57593;55.896;37.396;2022-12-18T00:57:23;16.65;;;9.48;;
70205;SDS011;57593;55.896;37.396;2022-12-18T00:57:53;16.70;;;10.50;;
70205;SDS011;57593;55.896;37.396;2022-12-18T00:58:24;15.65;;;9.18;;
70205;SDS011;57593;55.896;37.396;2022-12-18T00:58:55;15.70;;;9.50;;
70205;SDS011;57593;55.896;37.396;2022-12-18T00:59:25;16.50;;;9.00;;
70205;SDS011;57593;55.896;37.396;2022-12-18T00:59:56;14.25;;;9.13;;
70205;SDS011;57593;55.896;37.396;2022-12-18T01:00:27;17.44;;;10.08;;
70205;SDS011;57593;55.896;37.396;2022-12-18T01:00:58;15.65;;;9.60;;
70205;SDS011;57593;55.896;37.396;2022-12-18T01:01:28;17.90;;;10.00;;
70205;SDS011;57593;55.896;37.396;2022-12-18T01:01:59;14.35;;;9.00;;
70205;SDS011;57593;55.896;37.396;2022-12-18T01:02:30;13.68;;;8.25;;
70205;SDS011;57593;55.896;37.396;2022-12-18T01:03:00;16.55;;;9.25;;
70205;SDS011;57593;55.896;37.396;2022-12-18T01:03:31;16.85;;;8.98;;
70205;SDS011;57593;55.896;37.396;2022-12-18T01:04:02;16.25;;;9.20;;
70205;SDS011;57593;55.896;37.396;2022-12-18T01:04:33;17.76;;;9.62;;
70205;SDS011;57593;55.896;37.396;2022-12-18T01:05:05;16.70;;;9.90;;
70205;SDS011;57593;55.896;37.396;2022-12-18T01:05:38;18.02;;;9.90;;
70205;SDS011;57593;55.896;37.396;2022-12-18T01:06:11;18.22;;;9.38;;
70205;SDS011;57593;55.896;37.396;2022-12-18T01:06:43;15.92;;;9.76;;
70205;SDS011;57593;55.896;37.396;2022-12-18T01:07:14;14.13;;;9.55;;
70205;SDS011;57593;55.896;37.396;2022-12-18T01:07:45;17.17;;;9.40;;
70205;SDS011;57593;55.896;37.396;2022-12-18T01:08:15;16.88;;;9.68;;
70205;SDS011;57593;55.896;37.396;2022-12-18T01:08:47;15.24;;;9.78;;
70205;SDS011;57593;55.896;37.396;2022-12-18T01:09:18;14.93;;;9.13;;
70205;SDS011;57593;55.896;37.396;2022-12-18T01:09:48;15.85;;;10.00;;
70205;SDS011;57593;55.896;37.396;2022-12-18T01:10:19;16.38;;;9.65;;
70205;SDS011;57593;55.896;37.396;2022-12-18T01:10:50;15.95;;;10.02;;
70205;SDS011;57593;55.896;37.396;2022-12-18T01:11:22;15.40;;;10.27;;
70205;SDS011;57593;55.896;37.396;2022-12-18T01:11:53;13.20;;;8.80;;
70205;SDS011;57593;55.896;37.396;2022-12-18T01:12:24;14.23;;;9.07;;
70205;SDS011;57593;55.896;37.396;2022-12-18T01:12:54;17.03;;;9.67;;
70205;SDS011;57593;55.896;37.396;2022-12-18T01:13:25;16.65;;;10.20;;
70205;SDS011;57593;55.896;37.396;2022-12-18T01:13:59;15.40;;;9.45;;
70205;SDS011;57593;55.896;37.396;2022-12-18T01:14:29;14.78;;;9.68;;
70205;SDS011;57593;55.896;37.396;2022-12-18T01:15:00;14.88;;;9.55;;
70205;SDS011;57593;55.896;37.396;2022-12-18T01:15:31;14.23;;;8.77;;
70205;SDS011;57593;55.896;37.396;2022-12-18T01:16:02;14.52;;;8.05;;
70205;SDS011;57593;55.896;37.396;2022-12-18T01:16:32;15.20;;;9.18;;
70205;SDS011;57593;55.896;37.396;2022-12-18T01:17:03;14.77;;;9.60;;
70205;SDS011;57593;55.896;37.396;2022-12-18T01:17:36;14.84;;;9.20;;
70205;SDS011;57593;55.896;37.396;2022-12-18T01:18:07;12.00;;;7.88;;
70205;SDS011;57593;55.896;37.396;2022-12-18T01:18:38;14.63;;;10.13;;
70205;SDS011;57593;55.896;37.396;2022-12-18T01:19:09;13.68;;;8.15;;
70205;SDS011;57593;55.896;37.396;2022-12-18T01:19:39;14.00;;;8.02;;
70205;SDS011;57593;55.896;37.396;2022-12-18T01:20:14;16.48;;;10.08;;
70205;SDS011;57593;55.896;37.396;2022-12-18T01:20:45;14.63;;;9.63;;
70205;SDS011;57593;55.896;37.396;2022-12-18T01:21:15;15.27;;;10.07;;
70205;SDS011;57593;55.896;37.396;2022-12-18T01:21:47;17.70;;;9.86;;
70205;SDS011;57593;55.896;37.396;2022-12-18T01:22:17;14.55;;;8.90;;
70205;SDS011;57593;55.896;37.396;2022-12-18T01:22:48;14.72;;;8.78;;
70205;SDS011;57593;55.896;37.396;2022-12-18T01:23:19;14.25;;;9.38;;
70205;SDS011;57593;55.896;37.396;2022-12-18T01:23:53;14.95;;;9.48;;
70205;SDS011;57593;55.896;37.396;2022-12-18T01:24:27;16.66;;;9.20;;
70205;SDS011;57593;55.896;37.396;2022-12-18T01:24:57;15.25;;;8.95;;
70205;SDS011;57593;55.896;37.396;2022-12-18T01:25:28;14.40;;;8.63;;
70205;SDS011;57593;55.896;37.396;2022-12-18T01:26:03;15.10;;;9.20;;
70205;SDS011;57593;55.896;37.396;2022-12-18T01:26:35;15.34;;;8.62;;
70205;SDS011;57593;55.896;37.396;2022-12-18T01:27:05;14.77;;;9.20;;
70205;SDS011;57593;55.896;37.396;2022-12-18T01:27:37;13.54;;;8.86;;
70205;SDS011;57593;55.896;37.396;2022-12-18T01:28:07;13.95;;;8.40;;
70205;SDS011;57593;55.896;37.396;2022-12-18T01:28:38;17.08;;;9.45;;
70205;SDS011;57593;55.896;37.396;2022-12-18T01:29:10;14.52;;;9.76;;
70205;SDS011;57593;55.896;37.396;2022-12-18T01:29:40;18.05;;;9.25;;
70205;SDS011;57593;55.896;37.396;2022-12-18T01:30:11;14.93;;;9.05;;
70205;SDS011;57593;55.896;37.396;2022-12-18T01:30:42;15.32;;;9.07;;
70205;SDS011;57593;55.896;37.396;2022-12-18T01:31:25;15.43;;;8.52;;
70205;SDS011;57593;55.896;37.396;2022-12-18T01:31:58;12.68;;;8.73;;
70205;SDS011;57593;55.896;37.396;2022-12-18T01:32:29;14.73;;;9.20;;
70205;SDS011;57593;55.896;37.396;2022-12-18T01:33:00;15.52;;;8.16;;
70205;SDS011;57593;55.896;37.396;2022-12-18T01:33:31;13.73;;;9.32;;
70205;SDS011;57593;55.896;37.396;2022-12-18T01:34:02;14.50;;;9.15;;
70205;SDS011;57593;55.896;37.396;2022-12-18T01:34:35;15.32;;;8.74;;
70205;SDS011;57593;55.896;37.396;2022-12-18T01:35:07;15.28;;;9.06;;
70205;SDS011;57593;55.896;37.396;2022-12-18T01:35:42;14.20;;;8.93;;
70205;SDS011;57593;55.896;37.396;2022-12-18T01:36:20;12.02;;;7.68;;
70205;SDS011;57593;55.896;37.396;2022-12-18T01:36:52;15.52;;;8.32;;
70205;SDS011;57593;55.896;37.396;2022-12-18T01:37:23;15.15;;;8.60;;
70205;SDS011;57593;55.896;37.396;2022-12-18T01:37:54;14.42;;;7.48;;
70205;SDS011;57593;55.896;37.396;2022-12-18T01:38:25;15.16;;;8.94;;
70205;SDS011;57593;55.896;37.396;2022-12-18T01:38:56;14.88;;;8.27;;
70205;SDS011;57593;55.896;37.396;2022-12-18T01:39:27;14.36;;;8.94;;
70205;SDS011;57593;55.896;37.396;2022-12-18T01:39:58;11.76;;;7.60;;
70205;SDS011;57593;55.896;37.396;2022-12-18T01:40:29;13.50;;;7.65;;
70205;SDS011;57593;55.896;37.396;2022-12-18T01:41:00;13.73;;;8.10;;
70205;SDS011;57593;55.896;37.396;2022-12-18T01:41:32;15.02;;;9.20;;
70205;SDS011;57593;55.896;37.396;2022-12-18T01:42:22;13.44;;;8.42;;
70205;SDS011;57593;55.896;37.396;2022-12-18T01:42:53;13.55;;;8.55;;
70205;SDS011;57593;55.896;37.396;2022-12-18T01:45:41;16.30;;;8.22;;
70205;SDS011;57593;55.896;37.396;2022-12-18T01:46:12;15.93;;;8.33;;
70205;SDS011;57593;55.896;37.396;2022-12-18T01:46:44;14.05;;;8.20;;
70205;SDS011;57593;55.896;37.396;2022-12-18T01:47:15;13.10;;;7.90;;
70205;SDS011;57593;55.896;37.396;2022-12-18T01:48:39;12.72;;;7.80;;
70205;SDS011;57593;55.896;37.396;2022-12-18T01:49:10;13.57;;;8.35;;
70205;SDS011;57593;55.896;37.396;2022-12-18T01:49:41;15.50;;;8.93;;
70205;SDS011;57593;55.896;37.396;2022-12-18T01:50:20;12.57;;;8.07;;
70205;SDS011;57593;55.896;37.396;2022-12-18T01:51:00;12.73;;;8.13;;
70205;SDS011;57593;55.896;37.396;2022-12-18T01:51:31;20.48;;;8.82;;
70205;SDS011;57593;55.896;37.396;2022-12-18T01:52:02;13.73;;;8.20;;
70205;SDS011;57593;55.896;37.396;2022-12-18T01:52:33;15.93;;;8.73;;
70205;SDS011;57593;55.896;37.396;2022-12-18T01:53:06;13.57;;;8.80;;
70205;SDS011;57593;55.896;37.396;2022-12-18T01:53:41;15.88;;;8.90;;
70205;SDS011;57593;55.896;37.396;2022-12-18T01:54:13;14.02;;;8.36;;
70205;SDS011;57593;55.896;37.396;2022-12-18T01:54:44;15.37;;;8.93;;
70205;SDS011;57593;55.896;37.396;2022-12-18T01:55:17;15.38;;;8.30;;
70205;SDS011;57593;55.896;37.396;2022-12-18T01:55:52;14.45;;;8.75;;
70205;SDS011;57593;55.896;37.396;2022-12-18T01:56:24;13.10;;;7.55;;
70205;SDS011;57593;55.896;37.396;2022-12-18T01:56:55;14.35;;;8.48;;
70205;SDS011;57593;55.896;37.396;2022-12-18T01:57:27;13.95;;;8.75;;
70205;SDS011;57593;55.896;37.396;2022-12-18T01:57:59;13.42;;;8.06;;
70205;SDS011;57593;55.896;37.396;2022-12-18T01:58:42;13.20;;;7.95;;
70205;SDS011;57593;55.896;37.396;2022-12-18T01:59:21;15.68;;;8.18;;
70205;SDS011;57593;55.896;37.396;2022-12-18T01:59:53;13.45;;;8.60;;
70205;SDS011;57593;55.896;37.396;2022-12-18T02:00:27;14.75;;;8.75;;
70205;SDS011;57593;55.896;37.396;2022-12-18T02:00:58;15.75;;;8.93;;
70205;SDS011;57593;55.896;37.396;2022-12-18T02:01:29;17.57;;;9.30;;
70205;SDS011;57593;55.896;37.396;2022-12-18T02:02:05;16.00;;;9.02;;
70205;SDS011;57593;55.896;37.396;2022-12-18T02:02:37;16.64;;;9.36;;
70205;SDS011;57593;55.896;37.396;2022-12-18T02:03:09;13.85;;;8.40;;
70205;SDS011;57593;55.896;37.396;2022-12-18T02:03:41;16.57;;;8.07;;
70205;SDS011;57593;55.896;37.396;2022-12-18T02:04:24;13.50;;;7.72;;
70205;SDS011;57593;55.896;37.396;2022-12-18T02:04:57;14.35;;;8.88;;
70205;SDS011;57593;55.896;37.396;2022-12-18T02:06:50;12.68;;;7.97;;
70205;SDS011;57593;55.896;37.396;2022-12-18T02:08:28;14.73;;;8.15;;
70205;SDS011;57593;55.896;37.396;2022-12-18T02:09:51;15.68;;;7.88;;
70205;SDS011;57593;55.896;37.396;2022-12-18T02:10:27;13.35;;;7.50;;
70205;SDS011;57593;55.896;37.396;2022-12-18T02:11:49;14.80;;;9.20;;
70205;SDS011;57593;55.896;37.396;2022-12-18T02:12:43;16.75;;;8.43;;
70205;SDS011;57593;55.896;37.396;2022-12-18T02:17:26;14.05;;;7.70;;
70205;SDS011;57593;55.896;37.396;2022-12-18T02:17:52;12.60;;;7.97;;
70205;SDS011;57593;55.896;37.396;2022-12-18T02:18:30;12.43;;;7.43;;
70205;SDS011;57593;55.896;37.396;2022-12-18T02:19:20;11.68;;;7.43;;
70205;SDS011;57593;55.896;37.396;2022-12-18T02:20:54;13.45;;;7.60;;
70205;SDS011;57593;55.896;37.396;2022-12-18T02:21:50;13.98;;;7.75;;
70205;SDS011;57593;55.896;37.396;2022-12-18T02:27:00;12.77;;;7.30;;
70205;SDS011;57593;55.896;37.396;2022-12-18T02:27:35;14.25;;;8.38;;
70205;SDS011;57593;55.896;37.396;2022-12-18T02:28:11;13.55;;;8.52;;
70205;SDS011;57593;55.896;37.396;2022-12-18T02:28:46;12.98;;;7.85;;
70205;SDS011;57593;55.896;37.396;2022-12-18T02:30:09;15.82;;;8.57;;
70205;SDS011;57593;55.896;37.396;2022-12-18T02:30:42;14.82;;;8.45;;
70205;SDS011;57593;55.896;37.396;2022-12-18T02:31:16;14.18;;;8.77;;
70205;SDS011;57593;55.896;37.396;2022-12-18T02:31:54;14.93;;;7.53;;
70205;SDS011;57593;55.896;37.396;2022-12-18T02:32:31;12.38;;;7.78;;
70205;SDS011;57593;55.896;37.396;2022-12-18T02:33:06;12.60;;;7.63;;
70205;SDS011;57593;55.896;37.396;2022-12-18T02:33:39;14.60;;;8.77;;
70205;SDS011;57593;55.896;37.396;2022-12-18T02:34:12;14.95;;;8.88;;
70205;SDS011;57593;55.896;37.396;2022-12-18T02:34:44;15.45;;;8.23;;
70205;SDS011;57593;55.896;37.396;2022-12-18T02:35:25;16.10;;;7.88;;
70205;SDS011;57593;55.896;37.396;2022-12-18T02:36:03;14.57;;;7.68;;
70205;SDS011;57593;55.896;37.396;2022-12-18T02:36:37;13.75;;;7.45;;
70205;SDS011;57593;55.896;37.396;2022-12-18T02:37:12;14.85;;;8.45;;
70205;SDS011;57593;55.896;37.396;2022-12-18T02:37:45;13.57;;;7.93;;
70205;SDS011;57593;55.896;37.396;2022-12-18T02:38:17;13.95;;;8.25;;
70205;SDS011;57593;55.896;37.396;2022-12-18T02:38:50;15.68;;;8.73;;
70205;SDS011;57593;55.896;37.396;2022-12-18T02:39:23;17.30;;;9.10;;
70205;SDS011;57593;55.896;37.396;2022-12-18T02:40:02;15.35;;;8.52;;
70205;SDS011;57593;55.896;37.396;2022-12-18T02:40:36;14.60;;;8.18;;
70205;SDS011;57593;55.896;37.396;2022-12-18T02:41:09;13.43;;;8.07;;
70205;SDS011;57593;55.896;37.396;2022-12-18T02:41:41;15.10;;;8.52;;
70205;SDS011;57593;55.896;37.396;2022-12-18T02:42:12;12.57;;;7.73;;
70205;SDS011;57593;55.896;37.396;2022-12-18T02:42:44;12.73;;;7.72;;
70205;SDS011;57593;55.896;37.396;2022-12-18T02:43:21;12.05;;;7.82;;
70205;SDS011;57593;55.896;37.396;2022-12-18T02:43:58;12.13;;;8.00;;
70205;SDS011;57593;55.896;37.396;2022-12-18T02:44:35;14.32;;;8.40;;
70205;SDS011;57593;55.896;37.396;2022-12-18T02:45:14;16.48;;;8.68;;
70205;SDS011;57593;55.896;37.396;2022-12-18T02:46:24;16.00;;;8.80;;
70205;SDS011;57593;55.896;37.396;2022-12-18T02:47:08;15.10;;;8.88;;
70205;SDS011;57593;55.896;37.396;2022-12-18T02:47:42;12.13;;;8.30;;
70205;SDS011;57593;55.896;37.396;2022-12-18T02:48:17;13.72;;;8.44;;
70205;SDS011;57593;55.896;37.396;2022-12-18T02:48:52;14.88;;;8.23;;
70205;SDS011;57593;55.896;37.396;2022-12-18T02:49:31;13.63;;;7.85;;
70205;SDS011;57593;55.896;37.396;2022-12-18T02:50:29;13.30;;;7.55;;
70205;SDS011;57593;55.896;37.396;2022-12-18T02:51:43;12.50;;;7.03;;
70205;SDS011;57593;55.896;37.396;2022-12-18T02:54:06;14.70;;;7.13;;
70205;SDS011;57593;55.896;37.396;2022-12-18T02:57:13;11.85;;;7.55;;
70205;SDS011;57593;55.896;37.396;2022-12-18T02:57:34;12.80;;;7.05;;
70205;SDS011;57593;55.896;37.396;2022-12-18T02:58:22;10.80;;;6.03;;
70205;SDS011;57593;55.896;37.396;2022-12-18T02:58:58;12.95;;;6.82;;
70205;SDS011;57593;55.896;37.396;2022-12-18T02:59:58;13.77;;;7.22;;
70205;SDS011;57593;55.896;37.396;2022-12-18T03:00:43;10.85;;;6.35;;
70205;SDS011;57593;55.896;37.396;2022-12-18T03:02:02;11.93;;;6.70;;
70205;SDS011;57593;55.896;37.396;2022-12-18T03:02:41;12.15;;;7.47;;
70205;SDS011;57593;55.896;37.396;2022-12-18T03:04:04;14.18;;;6.38;;
70205;SDS011;57593;55.896;37.396;2022-12-18T03:04:43;12.48;;;7.72;;
70205;SDS011;57593;55.896;37.396;2022-12-18T03:05:36;13.43;;;7.53;;
70205;SDS011;57593;55.896;37.396;2022-12-18T03:06:13;11.70;;;6.72;;
70205;SDS011;57593;55.896;37.396;2022-12-18T03:06:56;11.43;;;6.25;;
70205;SDS011;57593;55.896;37.396;2022-12-18T03:07:34;14.77;;;7.03;;
70205;SDS011;57593;55.896;37.396;2022-12-18T03:08:16;12.20;;;7.07;;
70205;SDS011;57593;55.896;37.396;2022-12-18T03:09:13;11.15;;;6.75;;
70205;SDS011;57593;55.896;37.396;2022-12-18T03:09:51;12.32;;;7.60;;
70205;SDS011;57593;55.896;37.396;2022-12-18T03:10:26;14.18;;;8.13;;
70205;SDS011;57593;55.896;37.396;2022-12-18T03:11:04;15.40;;;8.52;;
70205;SDS011;57593;55.896;37.396;2022-12-18T03:11:39;12.38;;;7.32;;
70205;SDS011;57593;55.896;37.396;2022-12-18T03:12:31;12.98;;;6.25;;
70205;SDS011;57593;55.896;37.396;2022-12-18T03:13:08;11.63;;;7.43;;
70205;SDS011;57593;55.896;37.396;2022-12-18T03:13:50;15.13;;;7.93;;
70205;SDS011;57593;55.896;37.396;2022-12-18T03:14:27;12.25;;;7.65;;
70205;SDS011;57593;55.896;37.396;2022-12-18T03:15:06;13.23;;;8.00;;
70205;SDS011;57593;55.896;37.396;2022-12-18T03:15:42;11.27;;;6.82;;
70205;SDS011;57593;55.896;37.396;2022-12-18T03:16:24;10.73;;;7.22;;
70205;SDS011;57593;55.896;37.396;2022-12-18T03:17:02;13.13;;;6.95;;
70205;SDS011;57593;55.896;37.396;2022-12-18T03:17:36;13.05;;;7.45;;
70205;SDS011;57593;55.896;37.396;2022-12-18T03:18:21;12.52;;;7.70;;
70205;SDS011;57593;55.896;37.396;2022-12-18T03:19:10;12.95;;;7.70;;
70205;SDS011;57593;55.896;37.396;2022-12-18T03:19:45;13.65;;;8.15;;
70205;SDS011;57593;55.896;37.396;2022-12-18T03:20:19;11.63;;;7.07;;
70205;SDS011;57593;55.896;37.396;2022-12-18T03:20:52;13.27;;;7.57;;
70205;SDS011;57593;55.896;37.396;2022-12-18T03:21:27;12.52;;;6.80;;
70205;SDS011;57593;55.896;37.396;2022-12-18T03:22:03;12.93;;;6.50;;
70205;SDS011;57593;55.896;37.396;2022-12-18T03:22:46;13.57;;;7.72;;
70205;SDS011;57593;55.896;37.396;2022-12-18T03:23:24;14.57;;;7.15;;
70205;SDS011;57593;55.896;37.396;2022-12-18T03:23:59;12.50;;;8.07;;
70205;SDS011;57593;55.896;37.396;2022-12-18T03:24:32;12.50;;;7.00;;
70205;SDS011;57593;55.896;37.396;2022-12-18T03:25:05;12.23;;;7.32;;
70205;SDS011;57593;55.896;37.396;2022-12-18T03:25:41;13.45;;;8.13;;
70205;SDS011;57593;55.896;37.396;2022-12-18T03:26:15;12.90;;;8.02;;
70205;SDS011;57593;55.896;37.396;2022-12-18T03:26:52;12.95;;;7.57;;
70205;SDS011;57593;55.896;37.396;2022-12-18T03:27:28;10.52;;;6.60;;
70205;SDS011;57593;55.896;37.396;2022-12-18T03:28:04;12.43;;;7.32;;
70205;SDS011;57593;55.896;37.396;2022-12-18T03:28:42;12.60;;;7.07;;
70205;SDS011;57593;55.896;37.396;2022-12-18T03:29:18;12.20;;;7.53;;
70205;SDS011;57593;55.896;37.396;2022-12-18T03:29:50;14.18;;;7.43;;
70205;SDS011;57593;55.896;37.396;2022-12-18T03:30:31;12.63;;;7.25;;
70205;SDS011;57593;55.896;37.396;2022-12-18T03:31:08;12.30;;;7.68;;
70205;SDS011;57593;55.896;37.396;2022-12-18T03:31:43;11.65;;;7.30;;
70205;SDS011;57593;55.896;37.396;2022-12-18T03:32:25;13.48;;;7.90;;
70205;SDS011;57593;55.896;37.396;2022-12-18T03:33:05;13.93;;;8.25;;
70205;SDS011;57593;55.896;37.396;2022-12-18T03:33:47;12.95;;;6.90;;
70205;SDS011;57593;55.896;37.396;2022-12-18T03:34:26;13.18;;;7.95;;
70205;SDS011;57593;55.896;37.396;2022-12-18T03:35:03;12.05;;;7.32;;
70205;SDS011;57593;55.896;37.396;2022-12-18T03:35:41;11.90;;;7.03;;
70205;SDS011;57593;55.896;37.396;2022-12-18T03:36:14;14.52;;;7.85;;
70205;SDS011;57593;55.896;37.396;2022-12-18T03:36:45;12.80;;;7.37;;
70205;SDS011;57593;55.896;37.396;2022-12-18T03:37:17;14.02;;;8.55;;
70205;SDS011;57593;55.896;37.396;2022-12-18T03:37:48;12.53;;;7.53;;
70205;SDS011;57593;55.896;37.396;2022-12-18T03:38:19;10.38;;;6.90;;
70205;SDS011;57593;55.896;37.396;2022-12-18T03:38:53;11.68;;;8.23;;
70205;SDS011;57593;55.896;37.396;2022-12-18T03:39:25;13.40;;;8.20;;
70205;SDS011;57593;55.896;37.396;2022-12-18T03:40:00;14.40;;;8.20;;
70205;SDS011;57593;55.896;37.396;2022-12-18T03:41:19;13.93;;;7.18;;
70205;SDS011;57593;55.896;37.396;2022-12-18T03:41:55;10.70;;;7.03;;
70205;SDS011;57593;55.896;37.396;2022-12-18T03:42:51;13.65;;;6.57;;
70205;SDS011;57593;55.896;37.396;2022-12-18T03:44:21;8.95;;;6.45;;
70205;SDS011;57593;55.896;37.396;2022-12-18T03:45:18;13.45;;;7.90;;